createdAt,value
2023-05-10T00:09:28.402Z,99.90
2023-05-10T00:19:30.591Z,99.90
2023-05-10T00:29:32.526Z,99.90
2023-05-10T00:39:34.661Z,99.90
2023-05-10T00:49:37.278Z,99.90
2023-05-10T00:59:39.831Z,99.90
2023-05-10T01:09:41.948Z,99.90
2023-05-10T01:19:43.962Z,99.90
2023-05-10T01:30:16.261Z,99.90
2023-05-10T01:40:27.848Z,99.90
2023-05-10T01:50:31.457Z,99.90
2023-05-10T02:00:34.657Z,99.90
2023-05-10T02:10:37.207Z,99.90
2023-05-10T02:20:40.008Z,99.90
2023-05-10T02:30:42.740Z,99.90
2023-05-10T02:40:46.610Z,99.90
2023-05-10T02:50:51.658Z,99.90
2023-05-10T03:00:53.689Z,99.90
2023-05-10T03:11:10.788Z,99.90
2023-05-10T03:21:14.644Z,99.90
2023-05-10T03:31:19.112Z,99.90
2023-05-10T03:41:21.225Z,99.90
2023-05-10T03:51:23.674Z,99.90
2023-05-10T04:01:25.635Z,99.90
2023-05-10T04:11:28.049Z,99.90
2023-05-10T04:21:29.975Z,99.90
2023-05-10T04:31:31.907Z,99.90
2023-05-10T04:41:33.879Z,99.90
2023-05-10T04:51:36.097Z,98.10
2023-05-10T05:01:37.977Z,95.30
2023-05-10T05:11:39.986Z,91.00
2023-05-10T05:21:42.469Z,84.20
2023-05-10T05:31:44.764Z,83.90
2023-05-10T05:41:46.699Z,71.90
2023-05-10T05:51:48.527Z,69.30
2023-05-10T06:01:50.961Z,63.10
2023-05-10T06:11:54.092Z,58.70
2023-05-10T06:21:56.515Z,57.20
2023-05-10T06:31:58.497Z,57.60
2023-05-10T06:42:00.405Z,54.40
2023-05-10T06:52:07.774Z,53.60
2023-05-10T07:02:09.688Z,52.50
2023-05-10T07:12:13.433Z,50.90
2023-05-10T07:22:17.693Z,51.30
2023-05-10T07:32:19.701Z,50.40
2023-05-10T07:42:21.647Z,49.80
2023-05-10T07:52:23.608Z,49.20
2023-05-10T08:02:25.531Z,49.30
2023-05-10T08:12:27.645Z,49.90
2023-05-10T08:22:29.591Z,48.70
2023-05-10T08:32:31.595Z,50.30
2023-05-10T08:42:37.289Z,49.70
2023-05-10T08:52:41.379Z,47.70
2023-05-10T09:02:44.768Z,48.70
2023-05-10T09:12:47.754Z,47.90
2023-05-10T09:22:49.943Z,48.90
2023-05-10T09:32:52.501Z,48.70
2023-05-10T09:43:01.421Z,48.80
2023-05-10T09:53:04.676Z,47.80
2023-05-10T10:03:08.010Z,47.30
2023-05-10T10:13:09.960Z,48.30
2023-05-10T10:23:11.887Z,49.00
2023-05-10T10:33:40.823Z,48.50
2023-05-10T10:43:42.671Z,49.80
2023-05-10T10:53:45.235Z,49.80
2023-05-10T11:04:05.300Z,49.20
2023-05-10T11:14:08.428Z,49.30
2023-05-10T11:24:15.686Z,49.80
2023-05-10T11:34:31.959Z,49.60
2023-05-10T11:44:34.499Z,50.10
2023-05-10T11:54:36.414Z,48.90
2023-05-10T12:04:38.627Z,48.00
2023-05-10T12:25:23.665Z,47.90
2023-05-10T12:35:25.641Z,47.70
2023-05-10T12:45:27.546Z,48.10
2023-05-10T12:55:29.612Z,47.50
2023-05-10T13:05:31.609Z,47.40
2023-05-10T13:15:33.542Z,47.20
2023-05-10T13:25:35.537Z,46.30
2023-05-10T13:35:37.461Z,46.10
2023-05-10T13:45:39.331Z,46.10
2023-05-10T13:55:41.262Z,46.50
2023-05-10T14:05:43.250Z,46.50
2023-05-10T14:15:45.093Z,46.80
2023-05-10T14:25:47.412Z,47.20
2023-05-10T14:35:49.457Z,47.80
2023-05-10T14:45:51.490Z,48.80
2023-05-10T14:55:53.467Z,48.20
2023-05-10T15:05:55.262Z,47.40
2023-05-10T15:15:57.162Z,48.00
2023-05-10T15:25:59.046Z,47.60
2023-05-10T15:36:01.076Z,47.50
2023-05-10T15:46:03.017Z,48.90
2023-05-10T15:56:05.655Z,47.90
2023-05-10T16:06:07.689Z,48.20
2023-05-10T16:16:09.905Z,48.00
2023-05-10T16:26:12.233Z,47.80
2023-05-10T16:36:14.206Z,48.00
2023-05-10T16:46:16.200Z,47.90
2023-05-10T16:56:18.670Z,48.10
2023-05-10T17:06:20.574Z,47.90
2023-05-10T17:16:22.601Z,47.90
2023-05-10T17:26:24.447Z,47.90
2023-05-10T17:36:26.606Z,48.30
2023-05-10T17:46:29.086Z,48.50
2023-05-10T17:56:31.049Z,49.10
2023-05-10T18:06:36.563Z,49.50
2023-05-10T18:16:38.609Z,50.10
2023-05-10T18:26:40.670Z,52.60
2023-05-10T18:36:42.830Z,50.50
2023-05-10T18:46:44.794Z,51.00
2023-05-10T18:56:47.106Z,51.80
2023-05-10T19:06:49.213Z,52.40
2023-05-10T19:16:54.330Z,52.80
2023-05-10T19:26:56.503Z,53.40
2023-05-10T19:36:59.086Z,53.50
2023-05-10T19:47:00.934Z,53.30
2023-05-10T19:57:03.484Z,53.80
2023-05-10T20:07:05.406Z,53.80
2023-05-10T20:17:07.411Z,54.00
2023-05-10T20:27:09.470Z,55.40
2023-05-10T20:37:11.786Z,55.40
2023-05-10T20:47:17.453Z,56.20
2023-05-10T20:57:20.264Z,56.60
2023-05-10T21:07:22.699Z,56.90
2023-05-10T21:17:25.315Z,57.70
2023-05-10T21:27:27.593Z,58.10
2023-05-10T21:37:29.437Z,58.60
2023-05-10T21:47:31.335Z,59.60
2023-05-10T21:57:33.174Z,60.30
2023-05-10T22:07:35.116Z,61.10
2023-05-10T22:17:40.574Z,61.30
2023-05-10T22:27:42.711Z,63.30
2023-05-10T22:37:44.658Z,64.60
2023-05-10T22:47:47.990Z,66.50
2023-05-10T22:57:49.811Z,69.10
2023-05-10T23:07:51.727Z,70.40
2023-05-10T23:17:53.645Z,72.50
2023-05-10T23:27:55.607Z,75.60
2023-05-10T23:37:57.864Z,78.50
2023-05-10T23:47:59.870Z,79.90
2023-05-10T23:58:01.748Z,83.20
